sensor_id;sensor_type;location;lat;lon;timestamp;pressure;altitude;pressure_sealevel;temperature;humidity
39954;BME280;25631;51.516;-0.470;2023-12-20T00:01:42;101923.83;;;3.09;42.18
39954;BME280;25631;51.516;-0.470;2023-12-20T00:04:18;101926.26;;;3.90;42.11
39954;BME280;25631;51.516;-0.470;2023-12-20T00:06:55;101926.98;;;3.88;42.20
39954;BME280;25631;51.516;-0.470;2023-12-20T00:09:32;101922.39;;;3.73;42.34
39954;BME280;25631;51.516;-0.470;2023-12-20T00:12:08;101914.98;;;3.84;42.38
39954;BME280;25631;51.516;-0.470;2023-12-20T00:14:44;101912.93;;;3.93;42.40
39954;BME280;25631;51.516;-0.470;2023-12-20T00:17:21;101912.68;;;3.86;42.37
39954;BME280;25631;51.516;-0.470;2023-12-20T00:19:57;101907.78;;;3.87;42.53
39954;BME280;25631;51.516;-0.470;2023-12-20T00:22:34;101911.38;;;4.00;42.54
39954;BME280;25631;51.516;-0.470;2023-12-20T00:25:10;101914.40;;;4.02;42.41
39954;BME280;25631;51.516;-0.470;2023-12-20T00:27:46;101916.42;;;4.02;42.49
39954;BME280;25631;51.516;-0.470;2023-12-20T00:30:23;101918.73;;;3.82;42.38
39954;BME280;25631;51.516;-0.470;2023-12-20T00:32:59;101918.24;;;3.70;42.43
39954;BME280;25631;51.516;-0.470;2023-12-20T00:35:35;101921.93;;;4.01;42.34
39954;BME280;25631;51.516;-0.470;2023-12-20T00:38:12;101929.14;;;4.25;42.22
39954;BME280;25631;51.516;-0.470;2023-12-20T00:40:49;101930.01;;;4.16;42.30
39954;BME280;25631;51.516;-0.470;2023-12-20T00:43:25;101930.81;;;4.32;42.18
39954;BME280;25631;51.516;-0.470;2023-12-20T00:46:02;101929.00;;;4.12;42.23
39954;BME280;25631;51.516;-0.470;2023-12-20T00:48:39;101919.67;;;4.12;42.14
39954;BME280;25631;51.516;-0.470;2023-12-20T00:51:15;101917.36;;;3.86;42.09
39954;BME280;25631;51.516;-0.470;2023-12-20T00:53:51;101913.13;;;4.12;42.23
39954;BME280;25631;51.516;-0.470;2023-12-20T00:56:28;101910.41;;;4.44;42.08
39954;BME280;25631;51.516;-0.470;2023-12-20T00:59:04;101903.50;;;4.05;42.07
39954;BME280;25631;51.516;-0.470;2023-12-20T01:01:40;101910.97;;;4.45;42.05
39954;BME280;25631;51.516;-0.470;2023-12-20T01:04:17;101914.08;;;4.64;41.89
39954;BME280;25631;51.516;-0.470;2023-12-20T01:06:54;101902.12;;;4.32;41.97
39954;BME280;25631;51.516;-0.470;2023-12-20T01:09:30;101903.52;;;4.19;42.16
39954;BME280;25631;51.516;-0.470;2023-12-20T01:12:07;101909.51;;;4.51;42.16
39954;BME280;25631;51.516;-0.470;2023-12-20T01:14:43;101902.46;;;4.22;42.18
39954;BME280;25631;51.516;-0.470;2023-12-20T01:17:20;101898.49;;;4.23;41.99
39954;BME280;25631;51.516;-0.470;2023-12-20T01:19:56;101888.66;;;3.99;42.21
39954;BME280;25631;51.516;-0.470;2023-12-20T01:22:32;101887.17;;;4.18;42.25
39954;BME280;25631;51.516;-0.470;2023-12-20T01:25:08;101889.96;;;4.19;42.29
39954;BME280;25631;51.516;-0.470;2023-12-20T01:27:45;101888.75;;;4.13;42.38
39954;BME280;25631;51.516;-0.470;2023-12-20T01:30:21;101892.66;;;4.32;42.31
39954;BME280;25631;51.516;-0.470;2023-12-20T01:33:00;101900.26;;;4.23;42.22
39954;BME280;25631;51.516;-0.470;2023-12-20T01:35:36;101900.12;;;4.06;42.28
39954;BME280;25631;51.516;-0.470;2023-12-20T01:38:13;101905.77;;;4.47;42.09
39954;BME280;25631;51.516;-0.470;2023-12-20T01:40:49;101904.11;;;4.24;42.21
39954;BME280;25631;51.516;-0.470;2023-12-20T01:43:26;101900.17;;;4.47;42.11
39954;BME280;25631;51.516;-0.470;2023-12-20T01:46:03;101899.15;;;4.59;42.09
39954;BME280;25631;51.516;-0.470;2023-12-20T01:48:39;101886.77;;;4.20;42.31
39954;BME280;25631;51.516;-0.470;2023-12-20T01:51:16;101881.62;;;4.20;42.38
39954;BME280;25631;51.516;-0.470;2023-12-20T01:53:54;101878.98;;;4.12;42.36
39954;BME280;25631;51.516;-0.470;2023-12-20T01:56:32;101881.97;;;4.22;42.46
39954;BME280;25631;51.516;-0.470;2023-12-20T01:59:09;101873.69;;;4.46;42.47
39954;BME280;25631;51.516;-0.470;2023-12-20T02:01:45;101869.03;;;4.21;42.66
39954;BME280;25631;51.516;-0.470;2023-12-20T02:04:22;101873.03;;;4.13;42.66
39954;BME280;25631;51.516;-0.470;2023-12-20T02:06:59;101864.66;;;4.25;42.58
39954;BME280;25631;51.516;-0.470;2023-12-20T02:09:36;101864.70;;;3.95;42.84
39954;BME280;25631;51.516;-0.470;2023-12-20T02:12:12;101866.45;;;4.14;42.70
39954;BME280;25631;51.516;-0.470;2023-12-20T02:14:49;101863.97;;;3.99;42.67
39954;BME280;25631;51.516;-0.470;2023-12-20T02:17:26;101866.24;;;4.02;42.71
39954;BME280;25631;51.516;-0.470;2023-12-20T02:20:04;101870.11;;;3.94;42.90
39954;BME280;25631;51.516;-0.470;2023-12-20T02:22:40;101867.44;;;3.83;42.78
39954;BME280;25631;51.516;-0.470;2023-12-20T02:25:16;101863.28;;;4.07;42.83
39954;BME280;25631;51.516;-0.470;2023-12-20T02:27:54;101858.33;;;4.17;42.63
39954;BME280;25631;51.516;-0.470;2023-12-20T02:30:30;101855.06;;;4.23;42.73
39954;BME280;25631;51.516;-0.470;2023-12-20T02:33:08;101856.26;;;4.05;42.81
39954;BME280;25631;51.516;-0.470;2023-12-20T02:35:46;101856.58;;;4.02;42.66
39954;BME280;25631;51.516;-0.470;2023-12-20T02:38:23;101864.94;;;4.07;42.66
39954;BME280;25631;51.516;-0.470;2023-12-20T02:40:59;101861.03;;;4.15;42.83
39954;BME280;25631;51.516;-0.470;2023-12-20T02:43:36;101864.01;;;3.93;42.75
39954;BME280;25631;51.516;-0.470;2023-12-20T02:46:12;101865.58;;;4.10;42.75
39954;BME280;25631;51.516;-0.470;2023-12-20T02:48:50;101862.60;;;4.04;42.82
39954;BME280;25631;51.516;-0.470;2023-12-20T02:51:27;101864.51;;;4.18;42.82
39954;BME280;25631;51.516;-0.470;2023-12-20T02:54:03;101866.24;;;4.19;42.83
39954;BME280;25631;51.516;-0.470;2023-12-20T02:56:39;101870.40;;;3.95;42.72
39954;BME280;25631;51.516;-0.470;2023-12-20T02:59:16;101867.35;;;4.05;42.47
39954;BME280;25631;51.516;-0.470;2023-12-20T03:01:52;101875.05;;;4.05;42.84
39954;BME280;25631;51.516;-0.470;2023-12-20T03:04:28;101862.93;;;4.04;42.83
39954;BME280;25631;51.516;-0.470;2023-12-20T03:07:05;101862.01;;;3.97;42.88
39954;BME280;25631;51.516;-0.470;2023-12-20T03:09:41;101858.58;;;4.11;42.68
39954;BME280;25631;51.516;-0.470;2023-12-20T03:12:17;101858.73;;;4.33;42.56
39954;BME280;25631;51.516;-0.470;2023-12-20T03:14:54;101862.68;;;4.36;42.52
39954;BME280;25631;51.516;-0.470;2023-12-20T03:17:31;101862.77;;;4.11;42.53
39954;BME280;25631;51.516;-0.470;2023-12-20T03:20:08;101860.76;;;4.03;42.65
39954;BME280;25631;51.516;-0.470;2023-12-20T03:22:44;101862.62;;;4.47;42.30
39954;BME280;25631;51.516;-0.470;2023-12-20T03:25:21;101859.44;;;4.44;42.33
39954;BME280;25631;51.516;-0.470;2023-12-20T03:27:57;101861.59;;;4.36;42.37
39954;BME280;25631;51.516;-0.470;2023-12-20T03:30:33;101858.79;;;4.21;42.27
39954;BME280;25631;51.516;-0.470;2023-12-20T03:33:10;101863.41;;;3.98;42.52
39954;BME280;25631;51.516;-0.470;2023-12-20T03:35:46;101866.88;;;3.99;42.64
39954;BME280;25631;51.516;-0.470;2023-12-20T03:38:22;101864.53;;;3.86;42.64
39954;BME280;25631;51.516;-0.470;2023-12-20T03:40:59;101865.57;;;3.81;42.70
39954;BME280;25631;51.516;-0.470;2023-12-20T03:43:35;101870.70;;;4.13;42.58
39954;BME280;25631;51.516;-0.470;2023-12-20T03:46:11;101873.23;;;4.03;42.71
39954;BME280;25631;51.516;-0.470;2023-12-20T03:48:48;101877.56;;;4.21;42.58
39954;BME280;25631;51.516;-0.470;2023-12-20T03:51:24;101881.58;;;4.21;42.47
39954;BME280;25631;51.516;-0.470;2023-12-20T03:54:01;101883.15;;;4.24;42.45
39954;BME280;25631;51.516;-0.470;2023-12-20T03:56:37;101878.93;;;4.04;42.51
39954;BME280;25631;51.516;-0.470;2023-12-20T03:59:13;101879.52;;;4.14;42.67
39954;BME280;25631;51.516;-0.470;2023-12-20T04:01:50;101875.68;;;4.04;42.67
39954;BME280;25631;51.516;-0.470;2023-12-20T04:04:26;101877.86;;;3.96;42.66
39954;BME280;25631;51.516;-0.470;2023-12-20T04:07:03;101873.90;;;4.02;42.57
39954;BME280;25631;51.516;-0.470;2023-12-20T04:09:40;101875.75;;;3.85;42.63
39954;BME280;25631;51.516;-0.470;2023-12-20T04:12:17;101868.25;;;4.21;42.57
39954;BME280;25631;51.516;-0.470;2023-12-20T04:14:53;101865.41;;;4.07;42.73
39954;BME280;25631;51.516;-0.470;2023-12-20T04:17:29;101860.89;;;4.06;42.55
39954;BME280;25631;51.516;-0.470;2023-12-20T04:20:07;101868.32;;;3.95;42.72
39954;BME280;25631;51.516;-0.470;2023-12-20T04:22:43;101863.45;;;4.03;42.62
39954;BME280;25631;51.516;-0.470;2023-12-20T04:25:20;101861.77;;;4.12;42.62
39954;BME280;25631;51.516;-0.470;2023-12-20T04:27:56;101856.46;;;4.13;42.49
39954;BME280;25631;51.516;-0.470;2023-12-20T04:30:33;101858.70;;;4.25;42.44
39954;BME280;25631;51.516;-0.470;2023-12-20T04:33:09;101860.24;;;4.19;42.39
39954;BME280;25631;51.516;-0.470;2023-12-20T04:35:46;101862.82;;;3.94;42.40
39954;BME280;25631;51.516;-0.470;2023-12-20T04:38:22;101862.49;;;4.01;42.72
39954;BME280;25631;51.516;-0.470;2023-12-20T04:40:59;101862.80;;;3.91;42.73
39954;BME280;25631;51.516;-0.470;2023-12-20T04:43:35;101862.39;;;3.93;42.87
39954;BME280;25631;51.516;-0.470;2023-12-20T04:46:11;101855.66;;;3.76;43.03
39954;BME280;25631;51.516;-0.470;2023-12-20T04:48:48;101859.01;;;3.89;42.90
39954;BME280;25631;51.516;-0.470;2023-12-20T04:51:24;101854.87;;;4.17;42.72
39954;BME280;25631;51.516;-0.470;2023-12-20T04:54:01;101851.23;;;3.89;42.92
39954;BME280;25631;51.516;-0.470;2023-12-20T04:56:37;101860.81;;;3.87;42.95
39954;BME280;25631;51.516;-0.470;2023-12-20T04:59:14;101862.84;;;3.89;43.00
39954;BME280;25631;51.516;-0.470;2023-12-20T05:01:50;101874.12;;;4.18;42.78
39954;BME280;25631;51.516;-0.470;2023-12-20T05:04:27;101873.43;;;3.77;42.91
39954;BME280;25631;51.516;-0.470;2023-12-20T05:07:03;101878.98;;;3.98;42.85
39954;BME280;25631;51.516;-0.470;2023-12-20T05:09:40;101871.67;;;4.03;42.98
39954;BME280;25631;51.516;-0.470;2023-12-20T05:12:16;101871.81;;;3.96;43.00
39954;BME280;25631;51.516;-0.470;2023-12-20T05:14:52;101866.68;;;3.89;43.10
39954;BME280;25631;51.516;-0.470;2023-12-20T05:17:29;101866.72;;;4.09;43.00
39954;BME280;25631;51.516;-0.470;2023-12-20T05:20:07;101862.60;;;4.09;42.97
39954;BME280;25631;51.516;-0.470;2023-12-20T05:22:43;101850.84;;;4.23;42.80
39954;BME280;25631;51.516;-0.470;2023-12-20T05:25:20;101840.80;;;3.86;42.92
39954;BME280;25631;51.516;-0.470;2023-12-20T05:27:56;101834.49;;;4.13;42.87
39954;BME280;25631;51.516;-0.470;2023-12-20T05:30:33;101830.29;;;4.13;42.89
39954;BME280;25631;51.516;-0.470;2023-12-20T05:33:09;101823.57;;;3.71;43.04
39954;BME280;25631;51.516;-0.470;2023-12-20T05:35:45;101814.63;;;3.85;43.17
39954;BME280;25631;51.516;-0.470;2023-12-20T05:38:22;101815.41;;;3.76;43.10
39954;BME280;25631;51.516;-0.470;2023-12-20T05:40:59;101815.37;;;3.90;43.27
39954;BME280;25631;51.516;-0.470;2023-12-20T05:43:35;101814.55;;;4.15;42.99
39954;BME280;25631;51.516;-0.470;2023-12-20T05:46:11;101810.65;;;3.97;43.06
39954;BME280;25631;51.516;-0.470;2023-12-20T05:48:48;101812.02;;;4.15;43.00
39954;BME280;25631;51.516;-0.470;2023-12-20T05:51:24;101810.52;;;4.16;43.04
39954;BME280;25631;51.516;-0.470;2023-12-20T05:54:00;101804.10;;;3.69;43.10
39954;BME280;25631;51.516;-0.470;2023-12-20T05:56:37;101802.15;;;4.13;42.92
39954;BME280;25631;51.516;-0.470;2023-12-20T05:59:13;101803.72;;;4.51;42.79
39954;BME280;25631;51.516;-0.470;2023-12-20T06:01:50;101807.66;;;4.22;42.79
39954;BME280;25631;51.516;-0.470;2023-12-20T06:04:26;101808.76;;;4.16;42.89
39954;BME280;25631;51.516;-0.470;2023-12-20T06:07:03;101809.76;;;4.37;42.77
39954;BME280;25631;51.516;-0.470;2023-12-20T06:09:39;101811.46;;;4.14;42.84
39954;BME280;25631;51.516;-0.470;2023-12-20T06:12:16;101814.11;;;4.27;42.92
39954;BME280;25631;51.516;-0.470;2023-12-20T06:14:52;101820.43;;;4.39;42.86
39954;BME280;25631;51.516;-0.470;2023-12-20T06:17:29;101816.78;;;4.28;42.88
39954;BME280;25631;51.516;-0.470;2023-12-20T06:20:07;101812.14;;;4.33;42.81
39954;BME280;25631;51.516;-0.470;2023-12-20T06:22:44;101815.38;;;4.48;42.84
39954;BME280;25631;51.516;-0.470;2023-12-20T06:25:20;101818.10;;;4.01;42.90
39954;BME280;25631;51.516;-0.470;2023-12-20T06:27:57;101818.35;;;4.42;42.70
39954;BME280;25631;51.516;-0.470;2023-12-20T06:30:34;101817.67;;;4.13;42.80
39954;BME280;25631;51.516;-0.470;2023-12-20T06:33:10;101819.45;;;4.21;42.81
39954;BME280;25631;51.516;-0.470;2023-12-20T06:35:47;101810.11;;;4.01;42.93
39954;BME280;25631;51.516;-0.470;2023-12-20T06:38:23;101809.21;;;3.84;42.66
39954;BME280;25631;51.516;-0.470;2023-12-20T06:40:59;101806.49;;;4.59;42.53
39954;BME280;25631;51.516;-0.470;2023-12-20T06:43:36;101805.03;;;4.22;42.39
39954;BME280;25631;51.516;-0.470;2023-12-20T06:46:13;101810.02;;;4.28;42.54
39954;BME280;25631;51.516;-0.470;2023-12-20T06:48:50;101794.75;;;4.12;42.71
39954;BME280;25631;51.516;-0.470;2023-12-20T06:51:26;101790.97;;;4.36;42.74
39954;BME280;25631;51.516;-0.470;2023-12-20T06:54:03;101784.91;;;4.47;42.69
39954;BME280;25631;51.516;-0.470;2023-12-20T06:56:39;101785.99;;;4.49;42.88
39954;BME280;25631;51.516;-0.470;2023-12-20T06:59:16;101799.63;;;4.10;43.31
39954;BME280;25631;51.516;-0.470;2023-12-20T07:01:52;101794.94;;;4.32;42.91
39954;BME280;25631;51.516;-0.470;2023-12-20T07:04:29;101794.76;;;4.60;42.70
39954;BME280;25631;51.516;-0.470;2023-12-20T07:07:05;101790.16;;;4.53;42.83
39954;BME280;25631;51.516;-0.470;2023-12-20T07:09:42;101791.11;;;4.30;42.94
39954;BME280;25631;51.516;-0.470;2023-12-20T07:12:18;101794.24;;;4.54;43.00
39954;BME280;25631;51.516;-0.470;2023-12-20T07:14:54;101796.41;;;4.53;42.80
39954;BME280;25631;51.516;-0.470;2023-12-20T07:17:32;101781.97;;;4.40;42.99
39954;BME280;25631;51.516;-0.470;2023-12-20T07:20:09;101773.95;;;4.47;43.10
39954;BME280;25631;51.516;-0.470;2023-12-20T07:22:46;101779.96;;;4.57;43.00
39954;BME280;25631;51.516;-0.470;2023-12-20T07:25:22;101775.65;;;4.54;42.96
39954;BME280;25631;51.516;-0.470;2023-12-20T07:27:59;101774.39;;;4.48;42.80
39954;BME280;25631;51.516;-0.470;2023-12-20T07:30:35;101770.33;;;4.34;42.90
39954;BME280;25631;51.516;-0.470;2023-12-20T07:33:11;101762.11;;;4.72;42.87
39954;BME280;25631;51.516;-0.470;2023-12-20T07:35:48;101762.60;;;4.51;42.94
39954;BME280;25631;51.516;-0.470;2023-12-20T07:38:24;101763.54;;;4.63;42.80
39954;BME280;25631;51.516;-0.470;2023-12-20T07:41:00;101770.92;;;4.96;42.90
39954;BME280;25631;51.516;-0.470;2023-12-20T07:43:37;101778.35;;;4.70;42.89
39954;BME280;25631;51.516;-0.470;2023-12-20T07:46:13;101789.74;;;4.70;43.03
39954;BME280;25631;51.516;-0.470;2023-12-20T07:48:50;101795.54;;;4.67;43.16
39954;BME280;25631;51.516;-0.470;2023-12-20T07:51:26;101790.31;;;4.59;43.48
39954;BME280;25631;51.516;-0.470;2023-12-20T07:54:03;101789.31;;;5.15;43.06
39954;BME280;25631;51.516;-0.470;2023-12-20T07:56:39;101794.79;;;4.84;43.14
39954;BME280;25631;51.516;-0.470;2023-12-20T07:59:16;101791.91;;;4.90;43.23
39954;BME280;25631;51.516;-0.470;2023-12-20T08:01:52;101803.89;;;4.83;43.15
39954;BME280;25631;51.516;-0.470;2023-12-20T08:04:28;101816.58;;;4.77;43.50
39954;BME280;25631;51.516;-0.470;2023-12-20T08:07:05;101823.55;;;4.89;43.51
39954;BME280;25631;51.516;-0.470;2023-12-20T08:09:41;101818.60;;;5.01;43.45
39954;BME280;25631;51.516;-0.470;2023-12-20T08:12:17;101816.72;;;5.03;43.45
39954;BME280;25631;51.516;-0.470;2023-12-20T08:14:54;101815.65;;;4.97;43.62
39954;BME280;25631;51.516;-0.470;2023-12-20T08:17:31;101820.05;;;5.11;43.46
39954;BME280;25631;51.516;-0.470;2023-12-20T08:20:08;101821.86;;;5.05;43.49
39954;BME280;25631;51.516;-0.470;2023-12-20T08:22:46;101817.54;;;5.10;43.64
39954;BME280;25631;51.516;-0.470;2023-12-20T08:25:22;101814.24;;;5.21;43.54
39954;BME280;25631;51.516;-0.470;2023-12-20T08:27:59;101814.82;;;5.04;43.85
39954;BME280;25631;51.516;-0.470;2023-12-20T08:30:37;101818.67;;;5.14;43.74
39954;BME280;25631;51.516;-0.470;2023-12-20T08:33:13;101818.87;;;5.22;43.61
39954;BME280;25631;51.516;-0.470;2023-12-20T08:35:49;101822.39;;;5.32;43.64
39954;BME280;25631;51.516;-0.470;2023-12-20T08:38:26;101830.68;;;5.01;43.87
39954;BME280;25631;51.516;-0.470;2023-12-20T08:41:03;101836.94;;;5.42;43.72
39954;BME280;25631;51.516;-0.470;2023-12-20T08:43:39;101831.09;;;5.41;43.81
39954;BME280;25631;51.516;-0.470;2023-12-20T08:46:16;101835.03;;;5.31;43.85
39954;BME280;25631;51.516;-0.470;2023-12-20T08:48:52;101833.65;;;5.47;43.86
39954;BME280;25631;51.516;-0.470;2023-12-20T08:51:28;101823.89;;;5.42;43.96
39954;BME280;25631;51.516;-0.470;2023-12-20T08:54:05;101825.03;;;5.47;43.92
39954;BME280;25631;51.516;-0.470;2023-12-20T08:56:41;101826.27;;;5.56;43.73
39954;BME280;25631;51.516;-0.470;2023-12-20T08:59:17;101819.71;;;5.48;43.74
39954;BME280;25631;51.516;-0.470;2023-12-20T09:01:54;101814.50;;;5.65;43.62
39954;BME280;25631;51.516;-0.470;2023-12-20T09:04:30;101796.19;;;5.25;43.87
39954;BME280;25631;51.516;-0.470;2023-12-20T09:07:06;101792.97;;;5.79;43.90
39954;BME280;25631;51.516;-0.470;2023-12-20T09:09:43;101802.64;;;5.65;43.88
39954;BME280;25631;51.516;-0.470;2023-12-20T09:12:20;101807.54;;;5.25;43.77
39954;BME280;25631;51.516;-0.470;2023-12-20T09:14:57;101808.88;;;5.71;43.79
39954;BME280;25631;51.516;-0.470;2023-12-20T09:17:33;101811.06;;;5.19;43.81
39954;BME280;25631;51.516;-0.470;2023-12-20T09:20:10;101821.13;;;5.65;43.90
39954;BME280;25631;51.516;-0.470;2023-12-20T09:22:46;101817.45;;;5.69;43.89
39954;BME280;25631;51.516;-0.470;2023-12-20T09:25:24;101814.84;;;5.94;43.93
39954;BME280;25631;51.516;-0.470;2023-12-20T09:28:00;101811.65;;;5.91;43.78
39954;BME280;25631;51.516;-0.470;2023-12-20T09:30:37;101810.69;;;5.86;43.74
39954;BME280;25631;51.516;-0.470;2023-12-20T09:33:13;101812.79;;;6.01;43.70
39954;BME280;25631;51.516;-0.470;2023-12-20T09:35:50;101818.86;;;6.09;43.64
39954;BME280;25631;51.516;-0.470;2023-12-20T09:38:26;101813.44;;;6.29;43.65
39954;BME280;25631;51.516;-0.470;2023-12-20T09:41:02;101814.07;;;6.26;43.62
39954;BME280;25631;51.516;-0.470;2023-12-20T09:43:41;101816.18;;;6.46;43.47
39954;BME280;25631;51.516;-0.470;2023-12-20T09:46:20;101817.61;;;6.02;43.20
39954;BME280;25631;51.516;-0.470;2023-12-20T09:49:00;101828.38;;;6.30;43.40
39954;BME280;25631;51.516;-0.470;2023-12-20T09:51:37;101828.97;;;6.06;43.55
39954;BME280;25631;51.516;-0.470;2023-12-20T09:54:15;101829.67;;;6.36;43.56
39954;BME280;25631;51.516;-0.470;2023-12-20T09:56:51;101812.71;;;6.49;43.50
39954;BME280;25631;51.516;-0.470;2023-12-20T09:59:28;101798.73;;;6.26;43.40
39954;BME280;25631;51.516;-0.470;2023-12-20T10:02:08;101801.82;;;6.73;43.39
39954;BME280;25631;51.516;-0.470;2023-12-20T10:04:48;101792.53;;;6.21;43.50
39954;BME280;25631;51.516;-0.470;2023-12-20T10:07:25;101796.59;;;6.44;43.66
39954;BME280;25631;51.516;-0.470;2023-12-20T10:10:02;101801.40;;;6.45;43.58
39954;BME280;25631;51.516;-0.470;2023-12-20T10:12:38;101801.96;;;6.24;43.65
39954;BME280;25631;51.516;-0.470;2023-12-20T10:15:15;101795.68;;;6.48;43.68
39954;BME280;25631;51.516;-0.470;2023-12-20T10:17:51;101796.01;;;6.37;43.87
39954;BME280;25631;51.516;-0.470;2023-12-20T10:20:27;101802.43;;;6.51;43.50
39954;BME280;25631;51.516;-0.470;2023-12-20T10:23:04;101802.26;;;6.34;43.72
39954;BME280;25631;51.516;-0.470;2023-12-20T10:25:40;101805.46;;;6.64;43.85
39954;BME280;25631;51.516;-0.470;2023-12-20T10:28:17;101797.27;;;6.32;43.83
39954;BME280;25631;51.516;-0.470;2023-12-20T10:30:54;101803.74;;;6.40;43.90
39954;BME280;25631;51.516;-0.470;2023-12-20T10:33:31;101800.80;;;6.39;43.54
39954;BME280;25631;51.516;-0.470;2023-12-20T10:36:07;101796.28;;;6.52;43.74
39954;BME280;25631;51.516;-0.470;2023-12-20T10:38:46;101794.76;;;6.79;43.65
39954;BME280;25631;51.516;-0.470;2023-12-20T10:41:26;101793.29;;;6.31;43.63
39954;BME280;25631;51.516;-0.470;2023-12-20T10:44:04;101786.42;;;6.76;43.62
39954;BME280;25631;51.516;-0.470;2023-12-20T10:46:41;101786.54;;;7.01;43.47
39954;BME280;25631;51.516;-0.470;2023-12-20T10:49:18;101787.97;;;6.77;43.27
39954;BME280;25631;51.516;-0.470;2023-12-20T10:51:57;101788.89;;;6.85;43.34
39954;BME280;25631;51.516;-0.470;2023-12-20T10:54:35;101781.63;;;6.91;43.19
39954;BME280;25631;51.516;-0.470;2023-12-20T10:57:13;101778.64;;;6.62;43.24
39954;BME280;25631;51.516;-0.470;2023-12-20T10:59:54;101776.81;;;6.94;43.20
39954;BME280;25631;51.516;-0.470;2023-12-20T11:02:32;101770.20;;;6.77;43.22
39954;BME280;25631;51.516;-0.470;2023-12-20T11:05:17;101758.52;;;6.75;43.14
39954;BME280;25631;51.516;-0.470;2023-12-20T11:08:00;101752.05;;;6.87;43.09
39954;BME280;25631;51.516;-0.470;2023-12-20T11:10:43;101737.44;;;7.05;43.00
39954;BME280;25631;51.516;-0.470;2023-12-20T11:13:28;101733.83;;;7.17;42.97
39954;BME280;25631;51.516;-0.470;2023-12-20T11:16:07;101723.57;;;6.93;43.14
39954;BME280;25631;51.516;-0.470;2023-12-20T11:18:45;101730.87;;;6.97;42.89
39954;BME280;25631;51.516;-0.470;2023-12-20T11:21:21;101727.75;;;7.48;42.70
39954;BME280;25631;51.516;-0.470;2023-12-20T11:23:59;101725.30;;;7.39;42.72
39954;BME280;25631;51.516;-0.470;2023-12-20T11:26:35;101721.02;;;7.36;42.63
39954;BME280;25631;51.516;-0.470;2023-12-20T11:29:51;101719.15;;;7.29;42.70
39954;BME280;25631;51.516;-0.470;2023-12-20T11:32:28;101712.04;;;7.34;42.70
39954;BME280;25631;51.516;-0.470;2023-12-20T11:35:18;101706.91;;;7.24;42.71
39954;BME280;25631;51.516;-0.470;2023-12-20T11:37:58;101698.78;;;7.41;42.57
39954;BME280;25631;51.516;-0.470;2023-12-20T11:40:36;101696.95;;;7.49;42.38
39954;BME280;25631;51.516;-0.470;2023-12-20T11:43:29;101686.58;;;7.32;42.71
39954;BME280;25631;51.516;-0.470;2023-12-20T11:46:07;101681.82;;;7.31;42.70
39954;BME280;25631;51.516;-0.470;2023-12-20T11:48:44;101660.08;;;7.23;42.69
39954;BME280;25631;51.516;-0.470;2023-12-20T11:51:21;101657.15;;;6.85;42.88
39954;BME280;25631;51.516;-0.470;2023-12-20T11:53:58;101658.32;;;7.20;42.60
39954;BME280;25631;51.516;-0.470;2023-12-20T11:56:35;101649.80;;;7.64;42.39
39954;BME280;25631;51.516;-0.470;2023-12-20T11:59:12;101646.22;;;7.44;42.48
39954;BME280;25631;51.516;-0.470;2023-12-20T12:01:49;101635.62;;;7.44;42.53
39954;BME280;25631;51.516;-0.470;2023-12-20T12:04:26;101630.83;;;7.23;42.39
39954;BME280;25631;51.516;-0.470;2023-12-20T12:07:02;101628.15;;;7.05;42.78
39954;BME280;25631;51.516;-0.470;2023-12-20T12:09:38;101623.25;;;7.16;42.68
39954;BME280;25631;51.516;-0.470;2023-12-20T12:12:15;101623.64;;;7.18;42.90
39954;BME280;25631;51.516;-0.470;2023-12-20T12:14:51;101621.73;;;7.08;43.24
39954;BME280;25631;51.516;-0.470;2023-12-20T12:17:28;101625.92;;;7.29;43.26
39954;BME280;25631;51.516;-0.470;2023-12-20T12:20:06;101621.33;;;7.26;43.34
39954;BME280;25631;51.516;-0.470;2023-12-20T12:22:43;101616.47;;;7.52;42.92
39954;BME280;25631;51.516;-0.470;2023-12-20T12:25:19;101599.58;;;7.55;42.94
39954;BME280;25631;51.516;-0.470;2023-12-20T12:27:58;101597.12;;;7.98;43.18
39954;BME280;25631;51.516;-0.470;2023-12-20T12:30:34;101587.11;;;7.82;42.69
39954;BME280;25631;51.516;-0.470;2023-12-20T12:33:11;101588.00;;;7.44;42.74
39954;BME280;25631;51.516;-0.470;2023-12-20T12:35:48;101589.48;;;8.00;42.78
39954;BME280;25631;51.516;-0.470;2023-12-20T12:38:25;101593.53;;;8.09;42.51
39954;BME280;25631;51.516;-0.470;2023-12-20T12:41:01;101582.89;;;8.13;42.07
39954;BME280;25631;51.516;-0.470;2023-12-20T12:43:38;101574.40;;;8.53;41.39
39954;BME280;25631;51.516;-0.470;2023-12-20T12:46:14;101570.78;;;8.13;41.16
39954;BME280;25631;51.516;-0.470;2023-12-20T12:48:51;101569.45;;;8.09;41.28
39954;BME280;25631;51.516;-0.470;2023-12-20T12:51:27;101563.11;;;7.93;41.24
39954;BME280;25631;51.516;-0.470;2023-12-20T12:54:04;101541.07;;;8.16;41.31
39954;BME280;25631;51.516;-0.470;2023-12-20T12:56:40;101543.37;;;8.43;41.10
39954;BME280;25631;51.516;-0.470;2023-12-20T12:59:17;101548.95;;;8.31;41.23
39954;BME280;25631;51.516;-0.470;2023-12-20T13:01:53;101533.03;;;8.07;41.31
39954;BME280;25631;51.516;-0.470;2023-12-20T13:04:29;101540.77;;;8.08;41.55
39954;BME280;25631;51.516;-0.470;2023-12-20T13:07:06;101542.07;;;8.25;41.58
39954;BME280;25631;51.516;-0.470;2023-12-20T13:09:42;101538.27;;;8.25;41.90
39954;BME280;25631;51.516;-0.470;2023-12-20T13:12:18;101533.26;;;8.20;41.95
39954;BME280;25631;51.516;-0.470;2023-12-20T13:14:55;101531.41;;;8.08;42.14
39954;BME280;25631;51.516;-0.470;2023-12-20T13:17:31;101518.98;;;8.40;41.58
39954;BME280;25631;51.516;-0.470;2023-12-20T13:20:08;101515.96;;;7.93;41.54
39954;BME280;25631;51.516;-0.470;2023-12-20T13:22:45;101517.62;;;8.45;41.28
39954;BME280;25631;51.516;-0.470;2023-12-20T13:25:21;101536.14;;;8.31;41.42
39954;BME280;25631;51.516;-0.470;2023-12-20T13:27:58;101528.98;;;8.74;41.23
39954;BME280;25631;51.516;-0.470;2023-12-20T13:30:34;101518.63;;;8.43;41.38
39954;BME280;25631;51.516;-0.470;2023-12-20T13:33:11;101503.43;;;8.26;41.35
39954;BME280;25631;51.516;-0.470;2023-12-20T13:35:47;101504.17;;;8.62;41.09
39954;BME280;25631;51.516;-0.470;2023-12-20T13:38:24;101496.11;;;8.43;41.29
39954;BME280;25631;51.516;-0.470;2023-12-20T13:41:01;101471.18;;;8.55;41.27